Terminal Aerodrome Forecast
Issued by NWS

Home | Current Version | Previous Version | Text Only | Print | Product List | Glossary On
Versions: 1 2 3 4 5 6 7 8 9 10 11 12 13 14 15 16 17 18 19 20 21 22 23 24
620
FTUS46 KSEW 302338
TAFHQM
TAF
KHQM 302338Z 3100/3124 27010KT P6SM SCT250
     FM310700 VRB04KT P6SM SKC
      TEMPO 3113/3115 5SM BR SCT001
     FM311900 25010KT P6SM SKC=

USA.gov is the U.S. government's official web portal to all federal, state and local government web resources and services.